Time;durP1;ratioP1;P1;durP2;ratioP2;P2;SDS_P1;SDS_P2;PMS_P1;PMS_P2;Temp;Humidity;BMP_temperature;BMP_pressure;BME280_temperature;BME280_humidity;BME280_pressure;Samples;Min_cycle;Max_cycle;Signal;HPM_P1;HPM_P2
2021/03/12 00:00:31;;;;;;;1.93;0.67;;;6.30;99.90;;;;;;5031403;28;20770;-68
2021/03/12 00:02:57;;;;;;;1.90;0.93;;;6.30;99.90;;;;;;5031520;28;20265;-68
2021/03/12 00:05:23;;;;;;;5.30;1.83;;;6.20;99.90;;;;;;5031117;28;20857;-68
2021/03/12 00:07:48;;;;;;;3.40;0.90;;;6.20;99.90;;;;;;5010512;28;20498;-68
2021/03/12 00:10:17;;;;;;;4.83;1.23;;;6.30;99.90;;;;;;5030497;28;20182;-68
2021/03/12 00:12:44;;;;;;;3.17;0.83;;;6.20;99.90;;;;;;5025044;28;20176;-68
2021/03/12 00:15:13;;;;;;;6.73;0.70;;;6.20;99.90;;;;;;5011020;28;20431;-68
2021/03/12 00:17:39;;;;;;;3.00;0.63;;;6.10;99.90;;;;;;5020143;28;20430;-69
2021/03/12 00:20:11;;;;;;;1.50;0.57;;;6.00;99.90;;;;;;5030783;28;20410;-67
2021/03/12 00:22:38;;;;;;;1.73;0.70;;;5.90;99.90;;;;;;5030745;28;20410;-67
2021/03/12 00:25:12;;;;;;;1.80;0.60;;;5.80;99.90;;;;;;5012703;28;20485;-68
2021/03/12 00:27:38;;;;;;;1.30;0.60;;;5.70;99.90;;;;;;5030912;28;20414;-68
2021/03/12 00:30:05;;;;;;;4.20;0.73;;;5.70;99.90;;;;;;5030550;28;20964;-69
2021/03/12 00:32:31;;;;;;;3.20;0.63;;;5.80;99.90;;;;;;5031087;28;20670;-68
2021/03/12 00:34:57;;;;;;;5.17;0.90;;;5.70;99.90;;;;;;5021834;28;20419;-68
2021/03/12 00:37:22;;;;;;;2.93;0.60;;;5.80;99.90;;;;;;4993360;28;20342;-67
2021/03/12 00:39:48;;;;;;;3.77;1.03;;;5.80;99.90;;;;;;5010900;28;20637;-68
2021/03/12 00:42:14;;;;;;;15.20;1.00;;;5.90;99.90;;;;;;5029548;28;20282;-68
2021/03/12 00:44:40;;;;;;;1.80;0.67;;;5.90;99.90;;;;;;5030368;28;20695;-69
2021/03/12 00:47:05;;;;;;;5.23;0.80;;;6.00;99.90;;;;;;5010820;28;20195;-68
2021/03/12 00:49:31;;;;;;;1.77;0.80;;;5.80;99.90;;;;;;5029754;28;20179;-67
2021/03/12 00:51:56;;;;;;;4.63;0.80;;;5.90;99.90;;;;;;5030491;28;20571;-68
2021/03/12 00:54:22;;;;;;;5.70;1.03;;;5.90;99.90;;;;;;5030493;28;20253;-68
2021/03/12 00:56:48;;;;;;;7.00;1.37;;;5.90;99.90;;;;;;5031116;28;20263;-68
2021/03/12 00:59:13;;;;;;;3.13;1.13;;;6.00;99.90;;;;;;5010623;28;20181;-68
2021/03/12 01:01:39;;;;;;;3.23;0.93;;;6.00;99.90;;;;;;5010644;28;20186;-69
2021/03/12 01:04:05;;;;;;;4.07;1.03;;;6.00;99.90;;;;;;5017235;28;20219;-69
2021/03/12 01:06:30;;;;;;;1.63;0.60;;;6.00;99.90;;;;;;5029457;28;20183;-68
2021/03/12 01:08:56;;;;;;;1.43;0.80;;;6.10;99.90;;;;;;5030392;28;20179;-68
2021/03/12 01:11:22;;;;;;;6.43;0.97;;;6.20;99.90;;;;;;5030515;28;20266;-67
2021/03/12 01:13:47;;;;;;;3.80;0.97;;;6.20;99.90;;;;;;5030174;28;20271;-69
2021/03/12 01:16:13;;;;;;;5.20;1.67;;;6.20;99.90;;;;;;5030239;28;20187;-69
2021/03/12 01:18:38;;;;;;;1.63;0.57;;;6.20;99.90;;;;;;5011880;28;20212;-68
2021/03/12 01:21:05;;;;;;;5.47;1.20;;;6.30;99.90;;;;;;5014709;28;20180;-67
2021/03/12 01:23:30;;;;;;;5.47;0.83;;;6.20;99.90;;;;;;5014700;28;20184;-68
2021/03/12 01:25:56;;;;;;;5.63;1.17;;;6.20;99.90;;;;;;5014402;28;20462;-68
2021/03/12 01:28:21;;;;;;;2.43;1.00;;;6.30;99.90;;;;;;5015729;28;20183;-68
2021/03/12 01:30:49;;;;;;;4.33;1.20;;;6.30;99.90;;;;;;5034008;28;20237;-67
2021/03/12 01:33:15;;;;;;;5.37;0.97;;;6.30;99.90;;;;;;5034133;28;20265;-68
2021/03/12 01:35:41;;;;;;;2.37;0.97;;;6.30;99.90;;;;;;5034082;28;20505;-67
2021/03/12 01:38:07;;;;;;;2.90;1.13;;;6.30;99.90;;;;;;5033997;28;20513;-67
2021/03/12 01:40:36;;;;;;;2.67;0.93;;;6.30;99.90;;;;;;5033916;28;20871;-68
2021/03/12 01:43:02;;;;;;;5.40;1.33;;;6.30;99.90;;;;;;5033624;28;20835;-67
2021/03/12 01:45:37;;;;;;;3.67;1.13;;;6.40;99.90;;;;;;5033952;28;20453;-68
2021/03/12 01:48:09;;;;;;;6.20;1.13;;;6.30;99.90;;;;;;5033847;28;20171;-68
2021/03/12 01:50:35;;;;;;;4.97;1.63;;;6.40;99.90;;;;;;5034098;28;20504;-68
2021/03/12 01:53:01;;;;;;;3.57;0.70;;;6.40;99.90;;;;;;5019248;28;20412;-67
2021/03/12 01:55:34;;;;;;;2.50;0.83;;;6.50;99.90;;;;;;5032972;28;20633;-68
2021/03/12 01:58:01;;;;;;;8.07;1.13;;;6.50;99.90;;;;;;5033663;28;20187;-68
2021/03/12 02:00:27;;;;;;;2.00;0.93;;;6.50;99.90;;;;;;5033560;28;20418;-68
2021/03/12 02:02:55;;;;;;;3.87;0.90;;;6.50;99.90;;;;;;5031663;28;20466;-68
2021/03/12 02:05:20;;;;;;;6.27;0.77;;;6.50;99.90;;;;;;5033525;28;20462;-68
2021/03/12 02:07:46;;;;;;;6.27;1.23;;;6.50;99.90;;;;;;5025271;28;20442;-69
2021/03/12 02:10:18;;;;;;;6.67;1.13;;;6.60;99.90;;;;;;5032847;28;20180;-69
2021/03/12 02:12:57;;;;;;;2.47;0.90;;;6.50;99.90;;;;;;5017693;28;20180;-68
2021/03/12 02:15:38;;;;;;;4.40;1.00;;;6.60;99.90;;;;;;5013648;28;20427;-70
2021/03/12 02:18:36;;;;;;;3.70;1.10;;;6.50;99.90;;;;;;5013687;28;20505;-68
2021/03/12 02:21:10;;;;;;;6.07;1.30;;;6.50;99.90;;;;;;5001773;28;20990;-69
2021/03/12 02:23:51;;;;;;;6.40;1.00;;;6.40;99.90;;;;;;5013366;28;20415;-71
2021/03/12 02:26:50;;;;;;;0.77;0.50;;;6.30;99.90;;;;;;5032082;28;20454;-70
2021/03/12 02:29:21;;;;;;;1.70;0.70;;;6.20;99.90;;;;;;5032931;28;20418;-70
2021/03/12 02:31:51;;;;;;;3.20;0.90;;;6.10;99.90;;;;;;5031895;28;20958;-69
2021/03/12 02:34:19;;;;;;;4.00;0.80;;;6.10;99.90;;;;;;5014903;28;20527;-70
2021/03/12 02:36:52;;;;;;;5.47;0.80;;;6.10;99.90;;;;;;5013231;28;20441;-68
2021/03/12 02:39:22;;;;;;;4.13;0.83;;;6.10;99.90;;;;;;5032126;28;20418;-70
2021/03/12 02:41:57;;;;;;;4.70;1.17;;;6.00;99.90;;;;;;5032838;28;20413;-69
2021/03/12 02:44:26;;;;;;;2.37;0.93;;;6.00;99.90;;;;;;5021548;28;20449;-70
2021/03/12 02:46:55;;;;;;;2.50;0.93;;;6.00;99.90;;;;;;5032777;28;20445;-68
2021/03/12 02:49:21;;;;;;;4.73;1.00;;;6.00;99.90;;;;;;5032897;28;20817;-69
2021/03/12 02:51:47;;;;;;;5.30;1.00;;;6.00;99.90;;;;;;5032574;28;20775;-69
2021/03/12 02:54:13;;;;;;;3.47;0.83;;;6.00;99.90;;;;;;5032425;28;20446;-68
2021/03/12 02:56:41;;;;;;;5.83;1.13;;;6.00;99.90;;;;;;5032705;28;20493;-69
2021/03/12 02:59:07;;;;;;;4.80;0.80;;;6.10;99.90;;;;;;5024580;28;20419;-67
2021/03/12 03:01:34;;;;;;;0.93;0.53;;;6.00;99.90;;;;;;5032278;28;20422;-70
2021/03/12 03:04:00;;;;;;;6.07;1.10;;;6.10;99.90;;;;;;5016820;28;20219;-69
2021/03/12 03:06:26;;;;;;;3.00;0.90;;;6.20;99.90;;;;;;5012646;28;20419;-67
2021/03/12 03:08:52;;;;;;;3.33;1.20;;;6.10;99.90;;;;;;5012467;28;20172;-68
2021/03/12 03:11:18;;;;;;;5.70;1.03;;;6.20;99.90;;;;;;5012620;28;20521;-69
2021/03/12 03:13:46;;;;;;;1.17;0.83;;;6.20;99.90;;;;;;4994909;28;20427;-68
2021/03/12 03:16:17;;;;;;;4.50;1.10;;;6.20;99.90;;;;;;5012498;28;20433;-69
2021/03/12 03:18:45;;;;;;;4.57;1.00;;;6.20;99.90;;;;;;5012560;28;20913;-70
2021/03/12 03:21:12;;;;;;;5.07;1.20;;;6.10;99.90;;;;;;5012426;28;20514;-68
2021/03/12 03:23:39;;;;;;;5.27;1.20;;;6.10;99.90;;;;;;5012734;28;20431;-68
2021/03/12 03:26:05;;;;;;;4.87;1.60;;;6.10;99.90;;;;;;5011915;28;20462;-69
2021/03/12 03:28:31;;;;;;;4.77;1.10;;;5.90;99.90;;;;;;5012254;28;20761;-70
2021/03/12 03:31:00;;;;;;;5.70;1.10;;;5.90;99.90;;;;;;5012298;28;20511;-68
2021/03/12 03:33:26;;;;;;;4.73;1.00;;;5.80;99.90;;;;;;5011924;28;20230;-69
2021/03/12 03:35:52;;;;;;;5.47;1.70;;;5.80;99.90;;;;;;5012174;28;20836;-69
2021/03/12 03:38:18;;;;;;;4.67;2.00;;;5.70;99.90;;;;;;5012004;28;20197;-69
2021/03/12 03:40:44;;;;;;;3.67;1.07;;;5.70;99.90;;;;;;5012050;28;20231;-70
2021/03/12 03:43:11;;;;;;;6.30;1.40;;;5.60;99.90;;;;;;5011979;28;20260;-69
2021/03/12 03:45:38;;;;;;;3.53;1.53;;;5.70;99.90;;;;;;5011788;28;20757;-70
2021/03/12 03:48:04;;;;;;;4.47;1.20;;;5.70;99.90;;;;;;5011940;28;20415;-69
2021/03/12 03:50:39;;;;;;;7.30;1.10;;;5.80;99.90;;;;;;5011704;28;20497;-68
2021/03/12 03:53:07;;;;;;;8.20;1.67;;;5.70;99.90;;;;;;5011957;28;20438;-70
2021/03/12 03:55:33;;;;;;;3.80;1.13;;;5.80;99.90;;;;;;5011633;28;21686;-70
2021/03/12 03:58:02;;;;;;;6.77;1.30;;;5.80;99.90;;;;;;5011808;28;20474;-70
2021/03/12 04:00:28;;;;;;;6.27;1.40;;;5.80;99.90;;;;;;5011456;28;20442;-68
2021/03/12 04:03:04;;;;;;;10.63;1.43;;;5.90;99.90;;;;;;5013044;28;21025;-70
2021/03/12 04:05:30;;;;;;;5.57;1.23;;;5.90;99.90;;;;;;5011624;28;20508;-70
2021/03/12 04:07:56;;;;;;;7.77;1.40;;;6.00;99.90;;;;;;5011550;28;20569;-70
2021/03/12 04:10:22;;;;;;;5.73;1.43;;;5.70;99.90;;;;;;5011599;28;20642;-69
2021/03/12 04:12:49;;;;;;;6.13;1.40;;;6.10;99.90;;;;;;5011282;28;20411;-68
2021/03/12 04:15:15;;;;;;;6.90;1.17;;;6.00;99.90;;;;;;5011540;28;20427;-69
2021/03/12 04:17:42;;;;;;;10.03;1.63;;;6.10;99.90;;;;;;5011299;28;20469;-69
2021/03/12 04:20:09;;;;;;;9.50;1.80;;;6.10;99.90;;;;;;5011323;28;20426;-69
2021/03/12 04:22:35;;;;;;;7.07;1.20;;;6.10;99.90;;;;;;5011112;28;20415;-69
2021/03/12 04:25:03;;;;;;;6.63;1.47;;;6.10;99.90;;;;;;5011073;28;20443;-70
2021/03/12 04:27:29;;;;;;;6.83;1.30;;;6.20;99.90;;;;;;5011410;28;20414;-70
2021/03/12 04:29:54;;;;;;;7.33;1.43;;;6.20;99.90;;;;;;5010962;28;20969;-68
2021/03/12 04:32:21;;;;;;;5.83;1.20;;;6.10;99.90;;;;;;5011204;28;20212;-69
2021/03/12 04:34:47;;;;;;;6.93;1.50;;;6.10;99.90;;;;;;5011218;28;20212;-69
2021/03/12 04:37:14;;;;;;;3.60;1.10;;;6.20;99.90;;;;;;5011093;28;20415;-69
2021/03/12 04:39:41;;;;;;;6.83;1.50;;;6.20;99.90;;;;;;5011207;28;20502;-69
2021/03/12 04:42:08;;;;;;;4.80;1.60;;;6.20;99.90;;;;;;4992920;28;20917;-69
2021/03/12 04:44:37;;;;;;;4.20;0.90;;;6.20;99.90;;;;;;5011149;28;20542;-69
2021/03/12 04:47:05;;;;;;;9.83;1.83;;;6.20;99.90;;;;;;5010866;28;20585;-69
2021/03/12 04:49:31;;;;;;;3.27;0.97;;;6.30;99.90;;;;;;5010705;28;20438;-69
2021/03/12 04:51:58;;;;;;;8.20;1.20;;;6.30;99.90;;;;;;5011039;28;20434;-70
2021/03/12 04:54:24;;;;;;;5.37;0.80;;;6.40;99.90;;;;;;5010242;28;20431;-69
2021/03/12 04:56:50;;;;;;;3.23;0.80;;;6.40;99.90;;;;;;4993134;28;20434;-69
2021/03/12 04:59:16;;;;;;;7.57;1.60;;;6.40;99.90;;;;;;5010843;28;20412;-69
2021/03/12 05:01:43;;;;;;;8.43;1.20;;;6.40;99.90;;;;;;5011070;28;20180;-67
2021/03/12 05:04:16;;;;;;;4.70;1.20;;;6.40;99.90;;;;;;5022866;28;20536;-69
2021/03/12 05:06:44;;;;;;;3.93;1.47;;;6.40;99.90;;;;;;5030517;28;20445;-69
2021/03/12 05:09:14;;;;;;;6.17;1.40;;;6.40;99.90;;;;;;5030300;28;20508;-69
2021/03/12 05:11:43;;;;;;;8.27;1.30;;;6.40;99.90;;;;;;5020204;28;20427;-69
2021/03/12 05:14:14;;;;;;;2.63;0.80;;;6.40;99.90;;;;;;5010688;28;20425;-68
2021/03/12 05:16:40;;;;;;;5.63;1.43;;;6.40;99.90;;;;;;5022945;28;20510;-69
2021/03/12 05:19:06;;;;;;;6.97;1.50;;;6.40;99.90;;;;;;5030393;28;20916;-68
2021/03/12 05:21:32;;;;;;;6.53;1.30;;;6.40;99.90;;;;;;4996229;28;20462;-69
2021/03/12 05:23:58;;;;;;;9.17;1.50;;;6.40;99.90;;;;;;5010411;28;20187;-69
2021/03/12 05:26:24;;;;;;;4.10;1.43;;;6.40;99.90;;;;;;5029521;28;20282;-68
2021/03/12 05:28:53;;;;;;;7.47;1.40;;;6.30;99.90;;;;;;5019115;28;20493;-68
2021/03/12 05:31:21;;;;;;;6.07;1.20;;;6.40;99.90;;;;;;5030426;28;20476;-69
2021/03/12 05:33:47;;;;;;;5.27;1.20;;;6.20;99.90;;;;;;5026630;28;20473;-69
2021/03/12 05:36:12;;;;;;;9.53;1.67;;;6.30;99.90;;;;;;5010049;28;20518;-69
2021/03/12 05:38:38;;;;;;;8.70;1.10;;;6.20;99.90;;;;;;4992583;28;20547;-70
2021/03/12 05:41:05;;;;;;;6.90;1.33;;;6.20;99.90;;;;;;5011911;28;20176;-70
2021/03/12 05:43:31;;;;;;;4.10;1.00;;;6.30;99.90;;;;;;5010412;28;20172;-68
2021/03/12 05:45:59;;;;;;;5.93;1.17;;;6.30;99.90;;;;;;5028975;28;20457;-69
2021/03/12 05:48:25;;;;;;;4.13;1.00;;;6.30;99.90;;;;;;5014469;28;20180;-67
2021/03/12 05:50:51;;;;;;;4.67;1.10;;;6.30;99.90;;;;;;5011585;28;20421;-68
2021/03/12 05:53:18;;;;;;;6.10;0.90;;;6.30;99.90;;;;;;5029929;28;20419;-67
2021/03/12 05:55:43;;;;;;;3.30;1.40;;;6.30;99.90;;;;;;5030175;28;20234;-69
2021/03/12 05:58:09;;;;;;;3.77;1.03;;;6.40;99.90;;;;;;5021374;28;20722;-69
2021/03/12 06:00:35;;;;;;;5.03;1.60;;;6.30;99.90;;;;;;5020656;28;20187;-68
2021/03/12 06:03:01;;;;;;;5.60;1.30;;;6.30;99.90;;;;;;5018075;28;20462;-68
2021/03/12 06:05:26;;;;;;;5.37;1.00;;;6.30;99.90;;;;;;5011433;28;20200;-67
2021/03/12 06:07:52;;;;;;;5.97;1.47;;;6.20;99.90;;;;;;5024560;28;20602;-67
2021/03/12 06:10:17;;;;;;;2.80;1.30;;;6.20;99.90;;;;;;5030485;28;20176;-68
2021/03/12 06:12:43;;;;;;;4.63;1.07;;;6.10;99.90;;;;;;5013748;28;20655;-69
2021/03/12 06:15:09;;;;;;;5.83;1.40;;;6.10;99.90;;;;;;5013515;28;20172;-70
2021/03/12 06:17:43;;;;;;;7.53;1.33;;;6.10;99.90;;;;;;5013872;28;20206;-70
2021/03/12 06:20:16;;;;;;;3.10;1.33;;;6.00;99.90;;;;;;5013321;28;20461;-68
2021/03/12 06:22:49;;;;;;;6.33;1.50;;;6.10;99.90;;;;;;5013707;28;20711;-70
2021/03/12 06:25:32;;;;;;;5.97;1.60;;;6.10;99.90;;;;;;5020439;28;20504;-68
2021/03/12 06:28:14;;;;;;;1.83;0.97;;;6.10;99.90;;;;;;5025561;28;20406;-69
2021/03/12 06:30:39;;;;;;;4.97;1.50;;;6.20;99.90;;;;;;5033084;28;20514;-69
2021/03/12 06:33:05;;;;;;;5.83;1.40;;;6.20;99.90;;;;;;5032856;28;20501;-69
2021/03/12 06:35:38;;;;;;;5.47;1.73;;;6.30;99.90;;;;;;5030406;28;20248;-69
2021/03/12 06:38:09;;;;;;;3.53;0.73;;;6.30;99.90;;;;;;5032911;28;20370;-67
2021/03/12 06:40:38;;;;;;;7.37;1.70;;;6.40;99.90;;;;;;5032957;28;20418;-68
2021/03/12 06:43:07;;;;;;;5.30;1.30;;;6.40;99.90;;;;;;5021907;28;20425;-68
2021/03/12 06:45:42;;;;;;;6.53;1.40;;;6.40;99.90;;;;;;5010225;28;20505;-69
2021/03/12 06:48:13;;;;;;;6.80;1.60;;;6.40;99.90;;;;;;5012940;28;20764;-68
2021/03/12 06:50:48;;;;;;;5.77;1.50;;;6.50;99.90;;;;;;5030882;28;20403;-70
2021/03/12 06:53:26;;;;;;;5.27;1.23;;;6.50;99.90;;;;;;5032415;28;20410;-70
2021/03/12 06:55:53;;;;;;;7.43;1.60;;;6.60;99.90;;;;;;5029299;28;20477;-69
2021/03/12 06:58:26;;;;;;;4.77;1.57;;;6.60;99.90;;;;;;5012543;28;20415;-69
2021/03/12 07:00:51;;;;;;;4.63;2.00;;;6.60;99.90;;;;;;5012552;28;20423;-68
2021/03/12 07:03:21;;;;;;;7.53;1.83;;;6.60;99.90;;;;;;5018950;28;20461;-69
2021/03/12 07:06:16;;;;;;;4.97;1.27;;;6.80;99.90;;;;;;5032124;28;20632;-69
2021/03/12 07:08:51;;;;;;;2.03;0.97;;;6.80;99.90;;;;;;5029829;28;20498;-70
2021/03/12 07:11:18;;;;;;;4.80;1.77;;;7.00;99.90;;;;;;5031450;28;20452;-71
2021/03/12 07:13:44;;;;;;;3.87;1.27;;;6.90;99.90;;;;;;5011291;28;20828;-68
2021/03/12 07:16:09;;;;;;;5.77;1.90;;;6.90;99.90;;;;;;5012349;28;20419;-69
2021/03/12 07:18:35;;;;;;;4.07;0.97;;;7.00;99.90;;;;;;5011984;28;20794;-69
2021/03/12 07:21:02;;;;;;;4.33;1.60;;;7.10;99.90;;;;;;5012277;28;20528;-68
2021/03/12 07:23:29;;;;;;;4.40;1.23;;;7.10;99.90;;;;;;5012478;28;20192;-69
2021/03/12 07:25:55;;;;;;;10.53;1.30;;;7.10;99.90;;;;;;5012322;28;20473;-67
2021/03/12 07:28:27;;;;;;;6.10;1.27;;;7.20;99.90;;;;;;5012485;28;20867;-70
2021/03/12 07:30:54;;;;;;;7.20;1.43;;;7.20;99.90;;;;;;5012014;28;20466;-69
2021/03/12 07:33:25;;;;;;;8.23;1.47;;;7.20;99.90;;;;;;5012208;28;20411;-69
2021/03/12 07:35:58;;;;;;;9.63;1.67;;;7.20;99.90;;;;;;5012030;28;20423;-68
2021/03/12 07:38:25;;;;;;;7.00;1.93;;;7.20;99.90;;;;;;5012165;28;20415;-68
2021/03/12 07:40:53;;;;;;;4.03;1.20;;;7.20;99.90;;;;;;5011852;28;20442;-69
2021/03/12 07:43:19;;;;;;;7.27;1.40;;;7.30;99.90;;;;;;5011863;28;20427;-70
2021/03/12 07:45:45;;;;;;;4.97;1.20;;;7.40;99.90;;;;;;5011941;28;20562;-68
2021/03/12 07:48:12;;;;;;;5.20;1.20;;;7.40;99.90;;;;;;5012090;28;20419;-69
2021/03/12 07:50:39;;;;;;;5.40;1.53;;;7.50;99.90;;;;;;5011963;28;20498;-70
2021/03/12 07:53:07;;;;;;;11.10;2.03;;;7.40;99.90;;;;;;5011994;28;20416;-70
2021/03/12 07:55:36;;;;;;;8.27;1.33;;;7.50;99.90;;;;;;5012115;28;20616;-69
2021/03/12 07:58:06;;;;;;;6.53;1.70;;;7.50;99.90;;;;;;5011716;28;20822;-69
2021/03/12 08:01:04;;;;;;;4.20;1.10;;;7.50;99.90;;;;;;5011911;28;20416;-68
2021/03/12 08:03:39;;;;;;;4.17;1.10;;;7.50;99.90;;;;;;4968640;28;20533;-70
2021/03/12 08:06:24;;;;;;;2.33;0.97;;;7.50;99.90;;;;;;5012000;28;20936;-70
2021/03/12 08:08:50;;;;;;;6.07;2.47;;;7.40;99.90;;;;;;5011387;28;20423;-71
2021/03/12 08:11:21;;;;;;;7.80;1.43;;;7.40;99.90;;;;;;5011693;28;20415;-68
2021/03/12 08:13:48;;;;;;;6.47;1.27;;;7.40;99.90;;;;;;5011760;28;20212;-68
2021/03/12 08:16:14;;;;;;;5.77;1.57;;;7.40;99.90;;;;;;4992215;28;20994;-70
2021/03/12 08:18:40;;;;;;;9.00;1.60;;;7.40;99.90;;;;;;5011423;28;20419;-70
2021/03/12 08:21:30;;;;;;;10.10;1.47;;;7.40;99.90;;;;;;5011266;28;20518;-69
2021/03/12 08:23:55;;;;;;;7.30;1.40;;;7.50;99.90;;;;;;5011654;28;20415;-69
2021/03/12 08:26:46;;;;;;;14.40;1.67;;;7.80;99.90;;;;;;5011105;28;20501;-68
2021/03/12 08:29:30;;;;;;;6.83;0.97;;;7.90;99.90;;;;;;5010274;28;20176;-69
2021/03/12 08:31:56;;;;;;;4.97;1.60;;;8.00;99.90;;;;;;5011568;28;20506;-72
2021/03/12 08:34:41;;;;;;;3.00;1.27;;;8.10;99.90;;;;;;5011092;28;20506;-70
2021/03/12 08:37:25;;;;;;;3.27;0.97;;;8.20;99.90;;;;;;5011136;28;20639;-69
2021/03/12 08:40:14;;;;;;;7.07;1.53;;;8.10;99.90;;;;;;5011116;28;20422;-67
2021/03/12 08:42:54;;;;;;;6.70;1.60;;;8.20;99.90;;;;;;5010759;28;20457;-68
2021/03/12 08:45:47;;;;;;;9.93;1.70;;;8.00;99.90;;;;;;5010687;28;20454;-68
2021/03/12 08:48:19;;;;;;;7.90;1.17;;;8.10;99.90;;;;;;5007597;28;20511;-70
2021/03/12 08:50:53;;;;;;;10.57;1.30;;;8.00;99.90;;;;;;5010612;28;20469;-67
2021/03/12 08:53:21;;;;;;;4.33;1.57;;;8.00;99.90;;;;;;5010698;28;20439;-68
2021/03/12 08:55:49;;;;;;;5.10;1.13;;;7.90;99.90;;;;;;5010634;28;20984;-68
2021/03/12 08:58:22;;;;;;;6.70;1.03;;;7.80;99.90;;;;;;5010634;28;20407;-68
2021/03/12 09:00:50;;;;;;;4.10;0.80;;;7.60;99.90;;;;;;5010409;28;20450;-67
2021/03/12 09:03:16;;;;;;;2.60;0.90;;;7.40;99.90;;;;;;5010454;28;20933;-68
2021/03/12 09:05:42;;;;;;;6.43;1.20;;;7.30;99.90;;;;;;5009781;28;20458;-69
2021/03/12 09:08:08;;;;;;;5.57;1.47;;;7.30;99.90;;;;;;5010429;28;20631;-68
2021/03/12 09:10:34;;;;;;;7.70;1.57;;;7.30;99.90;;;;;;4992303;28;20422;-70
2021/03/12 09:13:00;;;;;;;5.87;1.43;;;7.30;99.90;;;;;;5010381;28;20543;-68
2021/03/12 09:15:27;;;;;;;7.30;1.47;;;7.40;99.90;;;;;;5010367;28;20180;-68
2021/03/12 09:17:57;;;;;;;8.73;1.57;;;7.50;99.90;;;;;;5010536;28;20466;-67
2021/03/12 09:20:23;;;;;;;13.40;2.50;;;7.60;99.90;;;;;;5010352;28;20427;-68
2021/03/12 09:22:51;;;;;;;9.30;1.50;;;7.70;99.90;;;;;;5010217;28;20473;-68
2021/03/12 09:25:32;;;;;;;3.50;1.10;;;7.60;99.90;;;;;;5010441;28;20504;-67
2021/03/12 09:28:12;;;;;;;11.50;1.87;;;7.80;99.90;;;;;;5009585;28;20462;-68
2021/03/12 09:30:42;;;;;;;5.10;1.50;;;7.90;99.90;;;;;;5009645;28;20523;-67
2021/03/12 09:33:09;;;;;;;11.67;2.40;;;8.00;99.90;;;;;;5010387;28;20419;-67
2021/03/12 09:35:41;;;;;;;13.50;1.80;;;8.20;99.90;;;;;;5010182;28;20419;-68
2021/03/12 09:38:08;;;;;;;3.50;0.67;;;8.40;99.90;;;;;;5010190;28;20473;-67
2021/03/12 09:40:41;;;;;;;4.63;0.87;;;8.80;99.90;;;;;;5012208;28;20427;-67
2021/03/12 09:43:09;;;;;;;8.53;1.47;;;8.70;99.90;;;;;;5014328;28;20423;-68
2021/03/12 09:45:38;;;;;;;9.33;1.73;;;8.80;99.90;;;;;;5014082;28;20466;-66
2021/03/12 09:48:05;;;;;;;15.83;7.10;;;8.70;99.90;;;;;;5014450;28;20454;-67
2021/03/12 09:50:35;;;;;;;7.73;1.50;;;8.90;99.90;;;;;;5014310;28;20485;-68
2021/03/12 09:53:04;;;;;;;7.27;1.70;;;9.00;99.90;;;;;;5014258;28;20458;-69
2021/03/12 09:55:33;;;;;;;11.27;2.00;;;9.10;99.90;;;;;;5013788;28;20430;-68
2021/03/12 09:57:59;;;;;;;6.70;1.73;;;9.20;99.90;;;;;;5013981;28;20750;-68
2021/03/12 10:00:26;;;;;;;7.17;1.30;;;9.30;99.90;;;;;;5013561;28;20502;-67
2021/03/12 10:02:56;;;;;;;11.77;2.33;;;9.30;99.90;;;;;;5014870;28;20191;-68
2021/03/12 10:05:24;;;;;;;2.27;0.70;;;9.50;99.90;;;;;;5013647;28;20455;-68
2021/03/12 10:07:51;;;;;;;5.57;1.57;;;9.40;99.90;;;;;;5014056;28;20415;-67
2021/03/12 10:10:21;;;;;;;4.60;0.97;;;9.50;99.90;;;;;;5011060;28;20711;-67
2021/03/12 10:12:48;;;;;;;5.50;1.27;;;9.50;99.90;;;;;;4994380;28;20416;-66
2021/03/12 10:15:20;;;;;;;5.30;1.17;;;9.50;99.90;;;;;;4994271;28;20782;-68
2021/03/12 10:17:46;;;;;;;3.60;1.10;;;10.30;99.90;;;;;;4994133;28;20815;-68
2021/03/12 10:20:27;;;;;;;9.20;1.63;;;9.50;99.90;;;;;;4994428;28;20205;-67
2021/03/12 10:22:58;;;;;;;3.33;1.13;;;9.60;99.90;;;;;;4994177;28;20428;-69
2021/03/12 10:25:28;;;;;;;10.13;1.60;;;9.80;95.70;;;;;;4993910;28;20204;-66
2021/03/12 10:28:06;;;;;;;10.33;1.97;;;9.90;99.70;;;;;;4994057;28;20425;-66
2021/03/12 10:30:39;;;;;;;4.47;1.50;;;9.80;96.50;;;;;;4993795;28;20771;-66
2021/03/12 10:33:11;;;;;;;7.30;1.53;;;9.80;98.80;;;;;;4994167;28;20499;-67
2021/03/12 10:35:45;;;;;;;14.13;2.23;;;9.80;96.00;;;;;;4994130;28;20416;-67
2021/03/12 10:38:27;;;;;;;6.83;1.63;;;9.30;97.10;;;;;;4993765;28;20455;-65
2021/03/12 10:40:55;;;;;;;12.13;3.50;;;10.10;96.90;;;;;;4993534;28;20427;-66
2021/03/12 10:43:29;;;;;;;4.83;1.33;;;9.80;94.80;;;;;;4993618;28;20412;-67
2021/03/12 10:46:00;;;;;;;7.43;1.50;;;9.70;99.90;;;;;;4992798;28;20514;-67
2021/03/12 10:48:28;;;;;;;6.47;1.70;;;8.90;99.90;;;;;;4992466;28;20440;-67
2021/03/12 10:51:00;;;;;;;10.87;1.70;;;8.70;99.90;;;;;;4993151;28;20432;-68
2021/03/12 10:53:26;;;;;;;10.10;1.80;;;8.80;99.90;;;;;;4992985;28;20409;-67
2021/03/12 10:56:01;;;;;;;7.27;1.40;;;9.00;99.90;;;;;;4993371;28;20416;-66
2021/03/12 10:58:32;;;;;;;7.83;1.60;;;9.10;99.90;;;;;;4993520;28;20556;-67
2021/03/12 11:01:24;;;;;;;17.50;2.37;;;9.10;99.90;;;;;;4993568;28;20423;-68
2021/03/12 11:03:55;;;;;;;17.53;2.27;;;9.00;99.90;;;;;;5001269;28;20455;-68
2021/03/12 11:06:26;;;;;;;3.33;1.07;;;9.10;99.90;;;;;;5012555;28;20455;-67
2021/03/12 11:08:51;;;;;;;23.67;2.43;;;9.40;99.50;;;;;;5011758;28;20427;-68
2021/03/12 11:11:19;;;;;;;11.43;2.63;;;9.50;98.90;;;;;;5012868;28;20407;-68
2021/03/12 11:13:45;;;;;;;9.70;2.73;;;9.70;98.30;;;;;;5012361;28;20184;-66
2021/03/12 11:16:11;;;;;;;12.30;2.07;;;9.80;98.20;;;;;;5012484;28;20176;-66
2021/03/12 11:18:37;;;;;;;11.53;2.67;;;10.00;99.10;;;;;;5012769;28;20642;-67
2021/03/12 11:21:05;;;;;;;6.57;1.60;;;10.10;96.20;;;;;;5012509;28;20191;-67
2021/03/12 11:23:31;;;;;;;10.77;2.13;;;10.10;92.70;;;;;;5012389;28;20258;-67
2021/03/12 11:25:57;;;;;;;9.43;2.57;;;10.10;95.00;;;;;;5012104;28;20250;-68
2021/03/12 11:28:24;;;;;;;4.97;1.13;;;10.10;92.00;;;;;;5012396;28;20577;-67
2021/03/12 11:30:50;;;;;;;3.33;1.03;;;9.90;89.20;;;;;;5011967;28;20419;-68
2021/03/12 11:33:15;;;;;;;5.57;1.20;;;10.00;90.70;;;;;;5012339;28;20416;-68
2021/03/12 11:35:41;;;;;;;10.13;1.60;;;10.20;90.80;;;;;;5012010;28;20188;-66
2021/03/12 11:38:09;;;;;;;2.20;0.90;;;10.20;92.40;;;;;;5012331;28;20180;-68
2021/03/12 11:40:36;;;;;;;9.20;1.50;;;10.20;90.00;;;;;;5012017;28;20438;-68
2021/03/12 11:43:03;;;;;;;8.17;2.20;;;10.20;90.00;;;;;;5012156;28;20427;-68
2021/03/12 11:45:29;;;;;;;11.33;1.37;;;10.20;88.80;;;;;;5011541;28;20494;-67
2021/03/12 11:47:58;;;;;;;9.20;1.37;;;10.40;92.00;;;;;;5012026;28;20211;-68
2021/03/12 11:50:27;;;;;;;10.20;1.67;;;10.80;89.60;;;;;;5011562;28;20176;-67
2021/03/12 11:52:53;;;;;;;4.10;1.20;;;11.00;89.10;;;;;;5011824;28;20635;-68
2021/03/12 11:55:20;;;;;;;10.03;2.07;;;11.00;79.60;;;;;;5011716;28;20188;-67
2021/03/12 11:57:45;;;;;;;4.40;1.33;;;11.20;90.00;;;;;;5011646;28;20277;-67
2021/03/12 12:00:13;;;;;;;5.67;1.27;;;11.50;81.90;;;;;;5011743;28;20176;-68
2021/03/12 12:02:39;;;;;;;10.00;1.80;;;11.60;79.80;;;;;;5011685;28;20176;-70
2021/03/12 12:05:07;;;;;;;8.07;1.67;;;11.80;80.60;;;;;;5013218;28;20734;-68
2021/03/12 12:07:33;;;;;;;7.70;1.30;;;11.60;76.50;;;;;;5011697;28;20207;-68
2021/03/12 12:10:00;;;;;;;10.23;1.57;;;11.50;82.00;;;;;;5011629;28;20184;-67
2021/03/12 12:12:26;;;;;;;7.47;1.87;;;11.50;84.90;;;;;;5011282;28;20523;-69
2021/03/12 12:14:52;;;;;;;7.60;2.30;;;11.70;81.90;;;;;;5011494;28;20197;-67
2021/03/12 12:17:18;;;;;;;6.23;1.80;;;12.10;71.40;;;;;;5011581;28;20735;-67
2021/03/12 12:19:45;;;;;;;4.83;1.53;;;12.10;79.10;;;;;;5011061;28;20188;-68
2021/03/12 12:22:12;;;;;;;4.40;1.27;;;12.00;75.00;;;;;;5011658;28;20218;-68
2021/03/12 12:24:38;;;;;;;10.30;1.70;;;12.10;74.00;;;;;;5011057;28;20184;-68
2021/03/12 12:27:05;;;;;;;13.70;2.30;;;12.40;73.60;;;;;;5011622;28;20577;-68
2021/03/12 12:29:31;;;;;;;7.27;1.53;;;12.80;74.00;;;;;;5011013;28;20180;-68
2021/03/12 12:31:57;;;;;;;1.60;0.80;;;13.10;73.90;;;;;;5011203;28;20169;-67
2021/03/12 12:34:22;;;;;;;9.80;1.67;;;12.90;61.60;;;;;;5011056;28;20582;-68
2021/03/12 12:36:48;;;;;;;6.63;1.80;;;12.60;69.40;;;;;;5010913;28;20528;-67
2021/03/12 12:39:14;;;;;;;6.83;1.43;;;12.30;66.70;;;;;;5011402;28;20168;-68
2021/03/12 12:41:40;;;;;;;9.13;1.50;;;12.20;64.30;;;;;;5010548;28;20653;-68
2021/03/12 12:44:09;;;;;;;7.20;1.30;;;11.90;66.50;;;;;;5009969;28;20184;-67
2021/03/12 12:46:39;;;;;;;6.27;1.37;;;12.20;70.40;;;;;;5010229;28;20728;-68
2021/03/12 12:49:05;;;;;;;5.50;1.63;;;12.40;67.00;;;;;;5010378;28;20176;-68
2021/03/12 12:51:31;;;;;;;5.50;1.40;;;12.90;66.60;;;;;;5011005;28;20224;-68
2021/03/12 12:53:56;;;;;;;10.13;1.47;;;13.20;67.20;;;;;;5010618;28;20524;-67
2021/03/12 12:56:22;;;;;;;10.80;1.63;;;13.10;65.30;;;;;;5010845;28;20192;-67
2021/03/12 12:58:49;;;;;;;7.97;1.67;;;13.20;68.50;;;;;;5010746;28;20653;-68
2021/03/12 13:01:15;;;;;;;22.83;3.00;;;13.80;66.90;;;;;;4992245;28;20200;-68
2021/03/12 13:03:40;;;;;;;5.83;1.40;;;13.50;61.80;;;;;;5009006;28;20259;-67